createdAt,value
2022-12-06T00:00:51.801Z,77.56
2022-12-06T00:06:01.797Z,77.61
2022-12-06T00:27:03.396Z,77.76
2022-12-06T00:32:06.437Z,77.86
2022-12-06T00:37:14.748Z,77.98
2022-12-06T00:53:02.098Z,77.67
2022-12-06T00:58:04.914Z,77.89
2022-12-06T01:03:08.242Z,78.06
2022-12-06T01:13:38.177Z,77.91
2022-12-06T01:18:44.925Z,78.07
2022-12-06T01:23:48.883Z,78.28
2022-12-06T01:28:58.698Z,78.28
2022-12-06T01:34:01.956Z,78.17
2022-12-06T01:39:04.965Z,78.26
2022-12-06T01:44:49.045Z,78.32
2022-12-06T01:49:58.223Z,78.06
2022-12-06T01:55:03.050Z,78.26
2022-12-06T02:00:13.691Z,78.22
2022-12-06T02:05:18.139Z,78.13
2022-12-06T02:10:22.162Z,78.11
2022-12-06T02:26:45.731Z,77.88
2022-12-06T02:31:59.482Z,77.95
2022-12-06T02:37:10.562Z,78.12
2022-12-06T02:42:20.922Z,78.13
2022-12-06T02:52:52.963Z,77.84
2022-12-06T03:09:20.927Z,77.63
2022-12-06T03:14:26.658Z,77.84
2022-12-06T03:35:37.760Z,77.98
2022-12-06T03:40:46.102Z,78.09
2022-12-06T03:51:18.647Z,77.88
2022-12-06T04:07:02.551Z,77.74
2022-12-06T04:12:06.036Z,78.00
2022-12-06T04:17:11.916Z,77.99
2022-12-06T04:22:21.159Z,77.91
2022-12-06T04:27:23.870Z,78.00
2022-12-06T04:32:27.563Z,78.01
2022-12-06T04:48:11.713Z,77.75
2022-12-06T04:53:14.490Z,77.80
2022-12-06T04:58:17.613Z,77.82
2022-12-06T05:08:49.450Z,77.78
2022-12-06T05:13:52.236Z,77.86
2022-12-06T05:18:55.238Z,77.88
2022-12-06T05:24:04.390Z,77.87
2022-12-06T05:29:08.711Z,77.96
2022-12-06T05:34:11.779Z,78.07
2022-12-06T05:39:20.368Z,78.14
2022-12-06T05:44:23.112Z,78.08
2022-12-06T05:49:26.873Z,78.18
2022-12-06T06:10:26.659Z,78.05
2022-12-06T06:15:30.472Z,78.28
2022-12-06T06:20:33.787Z,78.38
2022-12-06T06:30:57.194Z,78.49
2022-12-06T06:41:21.083Z,78.39
2022-12-06T06:46:24.791Z,78.52
2022-12-06T06:51:28.364Z,78.59
2022-12-06T06:56:38.326Z,78.67
2022-12-06T07:01:46.929Z,78.66
2022-12-06T07:06:49.718Z,78.84
2022-12-06T07:11:57.884Z,78.91
2022-12-06T07:17:01.271Z,78.95
2022-12-06T07:22:06.120Z,78.98
2022-12-06T07:27:14.959Z,79.00
2022-12-06T07:37:43.005Z,78.80
2022-12-06T07:42:45.810Z,78.91
2022-12-06T07:47:49.597Z,79.12
2022-12-06T07:53:01.436Z,79.16
2022-12-06T07:58:06.967Z,79.14
2022-12-06T08:03:10.609Z,79.38
2022-12-06T08:08:27.988Z,79.40
2022-12-06T08:18:53.483Z,79.25
2022-12-06T08:23:57.008Z,79.53
2022-12-06T08:34:26.452Z,79.42
2022-12-06T08:44:50.668Z,79.56
2022-12-06T08:49:55.345Z,79.78
2022-12-06T08:54:58.318Z,80.05
2022-12-06T09:05:24.941Z,79.79
2022-12-06T09:10:27.710Z,79.97
2022-12-06T09:20:54.105Z,79.84
2022-12-06T09:25:58.081Z,80.13
2022-12-06T09:31:01.486Z,80.15
2022-12-06T09:42:10.828Z,79.85
2022-12-06T09:47:34.761Z,80.00
2022-12-06T09:52:52.674Z,79.95
2022-12-06T09:58:08.678Z,80.23
2022-12-06T10:03:52.563Z,80.09
2022-12-06T10:09:23.501Z,79.86
2022-12-06T10:14:44.285Z,80.06
2022-12-06T10:19:59.600Z,80.28
2022-12-06T10:30:35.333Z,80.19
2022-12-06T10:35:45.338Z,80.67
2022-12-06T10:46:22.623Z,80.55
2022-12-06T10:51:37.678Z,80.87
2022-12-06T10:56:44.453Z,81.19
2022-12-06T11:01:57.541Z,81.38
2022-12-06T11:07:06.835Z,81.21
2022-12-06T11:12:30.768Z,81.52
2022-12-06T11:34:01.274Z,81.15
2022-12-06T11:39:05.417Z,81.82
2022-12-06T11:44:09.938Z,82.08
2022-12-06T11:49:29.371Z,82.01
2022-12-06T11:54:40.552Z,81.58
2022-12-06T12:00:11.650Z,81.74
2022-12-06T12:10:47.964Z,81.06
2022-12-06T12:15:53.159Z,81.32
2022-12-06T12:26:20.338Z,81.18
2022-12-06T12:31:26.320Z,80.98
2022-12-06T12:41:50.335Z,80.63
2022-12-06T12:46:58.045Z,80.65
2022-12-06T12:52:05.393Z,80.69
2022-12-06T12:57:20.844Z,80.72
2022-12-06T13:02:28.231Z,80.65
2022-12-06T13:07:34.472Z,80.67
2022-12-06T13:18:04.386Z,80.40
2022-12-06T13:23:12.719Z,80.50
2022-12-06T13:28:20.593Z,80.66
2022-12-06T13:33:32.976Z,80.60
2022-12-06T13:38:38.304Z,80.38
2022-12-06T13:54:47.056Z,79.97
2022-12-06T13:59:49.922Z,80.12
2022-12-06T14:04:52.658Z,80.06
2022-12-06T14:10:13.943Z,79.97
2022-12-06T14:15:20.516Z,79.86
2022-12-06T14:25:46.486Z,79.74
2022-12-06T14:30:50.030Z,79.78
2022-12-06T14:35:55.891Z,79.67
2022-12-06T14:41:07.131Z,79.64
2022-12-06T14:46:16.353Z,79.57
2022-12-06T14:56:39.334Z,79.50
2022-12-06T15:01:51.859Z,79.64
2022-12-06T15:07:03.705Z,79.58
2022-12-06T15:12:29.350Z,79.50
2022-12-06T15:22:51.154Z,79.37
2022-12-06T15:27:54.051Z,79.52
2022-12-06T15:32:56.779Z,79.59
2022-12-06T15:38:06.131Z,79.62
2022-12-06T15:43:24.507Z,79.71
2022-12-06T15:48:28.682Z,79.67
2022-12-06T15:59:05.140Z,79.58
2022-12-06T16:09:30.712Z,79.67
2022-12-06T16:14:33.772Z,79.84
2022-12-06T16:30:33.290Z,79.53
2022-12-06T16:35:36.273Z,79.61
2022-12-06T16:40:39.056Z,79.96
2022-12-06T16:51:12.526Z,79.73
2022-12-06T16:56:17.366Z,80.04
2022-12-06T17:06:49.363Z,79.89
2022-12-06T17:11:52.386Z,80.06
2022-12-06T17:16:56.148Z,80.12
2022-12-06T17:27:24.087Z,79.81
2022-12-06T17:43:00.697Z,79.82
2022-12-06T17:48:04.151Z,79.98
2022-12-06T17:53:07.893Z,79.99
2022-12-06T17:58:16.015Z,79.97
2022-12-06T18:08:38.444Z,79.81
2022-12-06T18:19:12.493Z,79.74
2022-12-06T18:24:22.184Z,79.55
2022-12-06T18:29:26.757Z,79.49
2022-12-06T18:55:48.885Z,78.69
2022-12-06T19:00:51.873Z,78.56
2022-12-06T19:06:02.997Z,77.97
2022-12-06T19:16:38.063Z,77.74
2022-12-06T19:21:41.929Z,77.42
2022-12-06T19:26:45.436Z,76.77
2022-12-06T19:31:54.499Z,76.59
2022-12-06T19:36:57.473Z,76.88
2022-12-06T19:42:00.740Z,76.76
2022-12-06T19:47:08.832Z,76.90
2022-12-06T19:52:15.698Z,77.16
2022-12-06T19:57:18.532Z,77.00
2022-12-06T20:02:28.883Z,77.04
2022-12-06T20:07:31.816Z,77.21
2022-12-06T20:12:34.801Z,77.14
2022-12-06T20:17:42.881Z,77.09
2022-12-06T20:22:45.786Z,77.26
2022-12-06T20:27:51.582Z,77.17
2022-12-06T20:33:00.596Z,77.21
2022-12-06T20:38:04.274Z,77.35
2022-12-06T20:43:07.155Z,77.22
2022-12-06T20:48:15.335Z,77.28
2022-12-06T20:58:39.130Z,77.47
2022-12-06T21:03:42.202Z,77.66
2022-12-06T21:19:23.570Z,78.30
2022-12-06T21:35:01.840Z,78.85
2022-12-06T21:50:47.295Z,79.23
2022-12-06T21:55:50.095Z,79.42
2022-12-06T22:00:53.222Z,79.48
2022-12-06T22:06:06.341Z,79.63
2022-12-06T22:11:13.400Z,79.48
2022-12-06T22:16:20.394Z,79.58
2022-12-06T22:21:32.932Z,79.66
2022-12-06T22:26:35.726Z,79.57
2022-12-06T22:31:38.579Z,79.57
2022-12-06T22:36:47.887Z,79.52
2022-12-06T22:41:50.831Z,79.48
2022-12-06T22:46:54.077Z,79.27
2022-12-06T22:57:32.748Z,79.04
2022-12-06T23:02:35.511Z,79.09
2022-12-06T23:12:57.923Z,78.87
2022-12-06T23:23:20.116Z,78.86
2022-12-06T23:28:22.828Z,78.90
2022-12-06T23:33:25.727Z,78.90
2022-12-06T23:38:37.133Z,78.88
2022-12-06T23:43:41.132Z,78.98
2022-12-06T23:48:47.623Z,79.11
